sensor_id;sensor_type;location;lat;lon;timestamp;P1;durP1;ratioP1;P2;durP2;ratioP2
7983;SDS011;4037;47.980;10.172;2023-06-14T00:01:45;6.50;;;3.40;;
7983;SDS011;4037;47.980;10.172;2023-06-14T00:04:12;5.10;;;3.33;;
7983;SDS011;4037;47.980;10.172;2023-06-14T00:06:38;6.00;;;3.10;;
7983;SDS011;4037;47.980;10.172;2023-06-14T00:09:06;4.67;;;3.20;;
7983;SDS011;4037;47.980;10.172;2023-06-14T00:11:33;5.23;;;3.00;;
7983;SDS011;4037;47.980;10.172;2023-06-14T00:13:59;4.37;;;3.20;;
7983;SDS011;4037;47.980;10.172;2023-06-14T00:16:25;3.90;;;3.00;;
7983;SDS011;4037;47.980;10.172;2023-06-14T00:18:52;4.37;;;3.10;;
7983;SDS011;4037;47.980;10.172;2023-06-14T00:21:18;4.67;;;3.40;;
7983;SDS011;4037;47.980;10.172;2023-06-14T00:23:44;4.00;;;2.97;;
7983;SDS011;4037;47.980;10.172;2023-06-14T00:26:10;3.90;;;3.17;;
7983;SDS011;4037;47.980;10.172;2023-06-14T00:28:36;4.73;;;3.10;;
7983;SDS011;4037;47.980;10.172;2023-06-14T00:31:02;7.33;;;3.47;;
7983;SDS011;4037;47.980;10.172;2023-06-14T00:33:28;5.53;;;3.70;;
7983;SDS011;4037;47.980;10.172;2023-06-14T00:35:54;6.03;;;3.50;;
7983;SDS011;4037;47.980;10.172;2023-06-14T00:38:20;5.60;;;3.70;;
7983;SDS011;4037;47.980;10.172;2023-06-14T00:40:46;8.37;;;3.23;;
7983;SDS011;4037;47.980;10.172;2023-06-14T00:43:12;7.20;;;3.83;;
7983;SDS011;4037;47.980;10.172;2023-06-14T00:45:38;7.80;;;3.77;;
7983;SDS011;4037;47.980;10.172;2023-06-14T00:48:04;9.60;;;3.60;;
7983;SDS011;4037;47.980;10.172;2023-06-14T00:50:32;4.37;;;3.00;;
7983;SDS011;4037;47.980;10.172;2023-06-14T00:52:59;5.23;;;3.50;;
7983;SDS011;4037;47.980;10.172;2023-06-14T00:55:26;4.60;;;3.77;;
7983;SDS011;4037;47.980;10.172;2023-06-14T00:57:53;5.40;;;3.60;;
7983;SDS011;4037;47.980;10.172;2023-06-14T01:00:20;4.63;;;3.40;;
7983;SDS011;4037;47.980;10.172;2023-06-14T01:02:46;4.70;;;3.40;;
7983;SDS011;4037;47.980;10.172;2023-06-14T01:05:12;6.60;;;3.87;;
7983;SDS011;4037;47.980;10.172;2023-06-14T01:13:36;4.93;;;3.83;;
7983;SDS011;4037;47.980;10.172;2023-06-14T01:15:36;5.57;;;3.53;;
7983;SDS011;4037;47.980;10.172;2023-06-14T01:18:03;5.73;;;3.70;;
7983;SDS011;4037;47.980;10.172;2023-06-14T01:20:31;5.93;;;4.00;;
7983;SDS011;4037;47.980;10.172;2023-06-14T01:22:57;5.97;;;4.20;;
7983;SDS011;4037;47.980;10.172;2023-06-14T01:25:24;5.23;;;3.93;;
7983;SDS011;4037;47.980;10.172;2023-06-14T01:28:01;4.97;;;3.97;;
7983;SDS011;4037;47.980;10.172;2023-06-14T01:30:28;4.63;;;3.63;;
7983;SDS011;4037;47.980;10.172;2023-06-14T01:32:55;4.47;;;3.77;;
7983;SDS011;4037;47.980;10.172;2023-06-14T01:35:21;6.40;;;4.23;;
7983;SDS011;4037;47.980;10.172;2023-06-14T01:37:48;7.10;;;3.60;;
7983;SDS011;4037;47.980;10.172;2023-06-14T01:40:14;4.03;;;3.60;;
7983;SDS011;4037;47.980;10.172;2023-06-14T01:42:41;8.97;;;4.07;;
7983;SDS011;4037;47.980;10.172;2023-06-14T01:45:08;5.20;;;4.37;;
7983;SDS011;4037;47.980;10.172;2023-06-14T01:47:35;5.17;;;3.80;;
7983;SDS011;4037;47.980;10.172;2023-06-14T01:50:02;5.77;;;4.00;;
7983;SDS011;4037;47.980;10.172;2023-06-14T01:52:28;7.17;;;4.10;;
7983;SDS011;4037;47.980;10.172;2023-06-14T01:54:54;5.57;;;4.20;;
7983;SDS011;4037;47.980;10.172;2023-06-14T01:57:20;6.27;;;4.13;;
7983;SDS011;4037;47.980;10.172;2023-06-14T01:59:47;6.27;;;3.60;;
7983;SDS011;4037;47.980;10.172;2023-06-14T02:02:14;5.57;;;3.80;;
7983;SDS011;4037;47.980;10.172;2023-06-14T02:04:41;6.03;;;3.97;;
7983;SDS011;4037;47.980;10.172;2023-06-14T02:07:07;4.87;;;3.57;;
7983;SDS011;4037;47.980;10.172;2023-06-14T02:09:33;5.10;;;3.73;;
7983;SDS011;4037;47.980;10.172;2023-06-14T02:12:00;6.17;;;4.03;;
7983;SDS011;4037;47.980;10.172;2023-06-14T02:14:26;4.73;;;3.67;;
7983;SDS011;4037;47.980;10.172;2023-06-14T02:16:52;5.93;;;4.20;;
7983;SDS011;4037;47.980;10.172;2023-06-14T02:19:19;5.97;;;4.30;;
7983;SDS011;4037;47.980;10.172;2023-06-14T02:21:45;6.73;;;4.37;;
7983;SDS011;4037;47.980;10.172;2023-06-14T02:24:11;7.33;;;4.20;;
7983;SDS011;4037;47.980;10.172;2023-06-14T02:26:37;4.70;;;4.13;;
7983;SDS011;4037;47.980;10.172;2023-06-14T02:29:04;7.50;;;4.40;;
7983;SDS011;4037;47.980;10.172;2023-06-14T02:31:31;8.87;;;4.73;;
7983;SDS011;4037;47.980;10.172;2023-06-14T02:33:57;5.87;;;4.23;;
7983;SDS011;4037;47.980;10.172;2023-06-14T02:36:23;8.37;;;3.70;;
7983;SDS011;4037;47.980;10.172;2023-06-14T02:38:50;5.13;;;4.10;;
7983;SDS011;4037;47.980;10.172;2023-06-14T02:41:17;4.67;;;3.53;;
7983;SDS011;4037;47.980;10.172;2023-06-14T02:43:43;5.40;;;4.37;;
7983;SDS011;4037;47.980;10.172;2023-06-14T02:46:09;5.13;;;4.00;;
7983;SDS011;4037;47.980;10.172;2023-06-14T02:48:36;5.60;;;3.77;;
7983;SDS011;4037;47.980;10.172;2023-06-14T02:51:02;6.03;;;4.70;;
7983;SDS011;4037;47.980;10.172;2023-06-14T02:53:28;6.07;;;4.63;;
7983;SDS011;4037;47.980;10.172;2023-06-14T02:55:54;6.70;;;4.43;;
7983;SDS011;4037;47.980;10.172;2023-06-14T02:58:20;6.43;;;4.20;;
7983;SDS011;4037;47.980;10.172;2023-06-14T03:00:46;5.27;;;4.17;;
7983;SDS011;4037;47.980;10.172;2023-06-14T03:03:12;5.30;;;3.73;;
7983;SDS011;4037;47.980;10.172;2023-06-14T03:05:44;4.57;;;4.00;;
7983;SDS011;4037;47.980;10.172;2023-06-14T03:08:14;4.80;;;3.90;;
7983;SDS011;4037;47.980;10.172;2023-06-14T03:10:51;6.37;;;3.73;;
7983;SDS011;4037;47.980;10.172;2023-06-14T03:13:18;5.37;;;3.53;;
7983;SDS011;4037;47.980;10.172;2023-06-14T03:15:47;5.30;;;3.63;;
7983;SDS011;4037;47.980;10.172;2023-06-14T03:18:15;6.07;;;3.93;;
7983;SDS011;4037;47.980;10.172;2023-06-14T03:20:42;5.33;;;4.13;;
7983;SDS011;4037;47.980;10.172;2023-06-14T03:23:10;5.30;;;3.77;;
7983;SDS011;4037;47.980;10.172;2023-06-14T03:25:36;4.53;;;3.73;;
7983;SDS011;4037;47.980;10.172;2023-06-14T03:28:04;5.33;;;3.90;;
7983;SDS011;4037;47.980;10.172;2023-06-14T03:30:30;5.50;;;4.23;;
7983;SDS011;4037;47.980;10.172;2023-06-14T03:32:57;4.67;;;4.17;;
7983;SDS011;4037;47.980;10.172;2023-06-14T03:35:26;5.63;;;4.30;;
7983;SDS011;4037;47.980;10.172;2023-06-14T03:37:52;8.97;;;3.83;;
7983;SDS011;4037;47.980;10.172;2023-06-14T03:40:18;5.93;;;3.90;;
7983;SDS011;4037;47.980;10.172;2023-06-14T03:42:45;5.23;;;3.40;;
7983;SDS011;4037;47.980;10.172;2023-06-14T03:45:11;5.57;;;4.20;;
7983;SDS011;4037;47.980;10.172;2023-06-14T03:47:37;10.77;;;5.03;;
7983;SDS011;4037;47.980;10.172;2023-06-14T03:50:03;6.33;;;4.30;;
7983;SDS011;4037;47.980;10.172;2023-06-14T03:52:29;5.30;;;3.87;;
7983;SDS011;4037;47.980;10.172;2023-06-14T03:54:58;7.53;;;4.93;;
7983;SDS011;4037;47.980;10.172;2023-06-14T03:57:25;7.07;;;4.53;;
7983;SDS011;4037;47.980;10.172;2023-06-14T03:59:51;6.23;;;3.93;;
7983;SDS011;4037;47.980;10.172;2023-06-14T04:02:17;9.97;;;4.40;;
7983;SDS011;4037;47.980;10.172;2023-06-14T04:04:44;5.97;;;4.50;;
7983;SDS011;4037;47.980;10.172;2023-06-14T04:07:11;4.67;;;3.60;;
7983;SDS011;4037;47.980;10.172;2023-06-14T04:09:37;4.87;;;3.77;;
7983;SDS011;4037;47.980;10.172;2023-06-14T04:12:04;4.90;;;4.20;;
7983;SDS011;4037;47.980;10.172;2023-06-14T04:14:30;7.47;;;4.00;;
7983;SDS011;4037;47.980;10.172;2023-06-14T04:16:57;6.10;;;4.03;;
7983;SDS011;4037;47.980;10.172;2023-06-14T04:19:24;6.60;;;4.10;;
7983;SDS011;4037;47.980;10.172;2023-06-14T04:21:50;6.60;;;4.07;;
7983;SDS011;4037;47.980;10.172;2023-06-14T04:24:16;4.97;;;3.63;;
7983;SDS011;4037;47.980;10.172;2023-06-14T04:26:42;8.20;;;4.43;;
7983;SDS011;4037;47.980;10.172;2023-06-14T04:29:13;5.17;;;4.20;;
7983;SDS011;4037;47.980;10.172;2023-06-14T04:31:41;7.13;;;4.20;;
7983;SDS011;4037;47.980;10.172;2023-06-14T04:34:07;7.30;;;4.20;;
7983;SDS011;4037;47.980;10.172;2023-06-14T04:36:33;6.50;;;4.60;;
7983;SDS011;4037;47.980;10.172;2023-06-14T04:39:02;4.70;;;4.17;;
7983;SDS011;4037;47.980;10.172;2023-06-14T04:41:32;6.53;;;4.53;;
7983;SDS011;4037;47.980;10.172;2023-06-14T04:43:59;6.73;;;4.67;;
7983;SDS011;4037;47.980;10.172;2023-06-14T04:46:27;7.77;;;4.47;;
7983;SDS011;4037;47.980;10.172;2023-06-14T04:48:56;5.90;;;4.20;;
7983;SDS011;4037;47.980;10.172;2023-06-14T04:51:27;5.57;;;4.30;;
7983;SDS011;4037;47.980;10.172;2023-06-14T04:53:58;6.00;;;4.47;;
7983;SDS011;4037;47.980;10.172;2023-06-14T04:56:26;5.77;;;4.43;;
7983;SDS011;4037;47.980;10.172;2023-06-14T04:58:52;8.47;;;4.30;;
7983;SDS011;4037;47.980;10.172;2023-06-14T05:01:19;7.80;;;4.80;;
7983;SDS011;4037;47.980;10.172;2023-06-14T05:03:46;5.73;;;4.23;;
7983;SDS011;4037;47.980;10.172;2023-06-14T05:06:14;6.63;;;4.50;;
7983;SDS011;4037;47.980;10.172;2023-06-14T05:08:41;8.60;;;4.20;;
7983;SDS011;4037;47.980;10.172;2023-06-14T05:11:07;6.37;;;4.23;;
7983;SDS011;4037;47.980;10.172;2023-06-14T05:13:33;6.90;;;3.90;;
7983;SDS011;4037;47.980;10.172;2023-06-14T05:15:59;7.67;;;4.80;;
7983;SDS011;4037;47.980;10.172;2023-06-14T05:18:26;6.63;;;4.90;;
7983;SDS011;4037;47.980;10.172;2023-06-14T05:20:52;6.57;;;4.47;;
7983;SDS011;4037;47.980;10.172;2023-06-14T05:23:20;7.43;;;4.77;;
7983;SDS011;4037;47.980;10.172;2023-06-14T05:25:46;6.43;;;4.60;;
7983;SDS011;4037;47.980;10.172;2023-06-14T05:28:12;6.20;;;4.57;;
7983;SDS011;4037;47.980;10.172;2023-06-14T05:30:38;4.97;;;4.47;;
7983;SDS011;4037;47.980;10.172;2023-06-14T05:33:05;7.80;;;4.20;;
7983;SDS011;4037;47.980;10.172;2023-06-14T05:35:31;5.73;;;4.23;;
7983;SDS011;4037;47.980;10.172;2023-06-14T05:37:57;10.87;;;4.40;;
7983;SDS011;4037;47.980;10.172;2023-06-14T05:40:23;5.20;;;4.27;;
7983;SDS011;4037;47.980;10.172;2023-06-14T05:42:49;7.33;;;5.13;;
7983;SDS011;4037;47.980;10.172;2023-06-14T05:45:15;8.07;;;4.70;;
7983;SDS011;4037;47.980;10.172;2023-06-14T05:47:41;8.00;;;4.60;;
7983;SDS011;4037;47.980;10.172;2023-06-14T05:50:07;5.07;;;4.43;;
7983;SDS011;4037;47.980;10.172;2023-06-14T05:52:34;5.70;;;4.53;;
7983;SDS011;4037;47.980;10.172;2023-06-14T05:55:04;9.40;;;4.60;;
7983;SDS011;4037;47.980;10.172;2023-06-14T05:57:31;30.30;;;6.37;;
7983;SDS011;4037;47.980;10.172;2023-06-14T05:59:57;11.93;;;4.93;;
7983;SDS011;4037;47.980;10.172;2023-06-14T06:02:23;5.63;;;4.40;;
7983;SDS011;4037;47.980;10.172;2023-06-14T06:04:49;6.33;;;4.13;;
7983;SDS011;4037;47.980;10.172;2023-06-14T06:07:15;7.33;;;3.80;;
7983;SDS011;4037;47.980;10.172;2023-06-14T06:09:41;6.53;;;3.30;;
7983;SDS011;4037;47.980;10.172;2023-06-14T06:12:08;6.43;;;3.83;;
7983;SDS011;4037;47.980;10.172;2023-06-14T06:14:35;7.43;;;3.70;;
7983;SDS011;4037;47.980;10.172;2023-06-14T06:17:01;5.13;;;3.10;;
7983;SDS011;4037;47.980;10.172;2023-06-14T06:19:27;5.20;;;3.40;;
7983;SDS011;4037;47.980;10.172;2023-06-14T06:21:53;6.70;;;3.50;;
7983;SDS011;4037;47.980;10.172;2023-06-14T06:24:19;6.53;;;3.60;;
7983;SDS011;4037;47.980;10.172;2023-06-14T06:26:45;4.90;;;3.57;;
7983;SDS011;4037;47.980;10.172;2023-06-14T06:29:11;6.60;;;3.60;;
7983;SDS011;4037;47.980;10.172;2023-06-14T06:31:37;5.77;;;3.77;;
7983;SDS011;4037;47.980;10.172;2023-06-14T06:34:03;4.83;;;4.10;;
7983;SDS011;4037;47.980;10.172;2023-06-14T06:36:29;5.57;;;3.67;;
7983;SDS011;4037;47.980;10.172;2023-06-14T06:38:55;5.70;;;3.63;;
7983;SDS011;4037;47.980;10.172;2023-06-14T06:41:21;5.73;;;3.53;;
7983;SDS011;4037;47.980;10.172;2023-06-14T06:43:47;7.33;;;3.20;;
7983;SDS011;4037;47.980;10.172;2023-06-14T06:46:13;4.43;;;3.40;;
7983;SDS011;4037;47.980;10.172;2023-06-14T06:48:39;4.07;;;3.33;;
7983;SDS011;4037;47.980;10.172;2023-06-14T06:51:05;6.37;;;4.47;;
7983;SDS011;4037;47.980;10.172;2023-06-14T06:53:31;4.53;;;3.50;;
7983;SDS011;4037;47.980;10.172;2023-06-14T06:55:57;3.43;;;3.10;;
7983;SDS011;4037;47.980;10.172;2023-06-14T06:58:23;5.40;;;3.13;;
7983;SDS011;4037;47.980;10.172;2023-06-14T07:00:49;4.90;;;3.70;;
7983;SDS011;4037;47.980;10.172;2023-06-14T07:03:15;6.20;;;3.33;;
7983;SDS011;4037;47.980;10.172;2023-06-14T07:05:42;3.73;;;3.40;;
7983;SDS011;4037;47.980;10.172;2023-06-14T07:08:08;6.37;;;3.40;;
7983;SDS011;4037;47.980;10.172;2023-06-14T07:10:34;4.53;;;3.27;;
7983;SDS011;4037;47.980;10.172;2023-06-14T07:13:02;4.43;;;3.60;;
7983;SDS011;4037;47.980;10.172;2023-06-14T07:15:28;3.97;;;3.40;;
7983;SDS011;4037;47.980;10.172;2023-06-14T07:17:54;4.70;;;3.60;;
7983;SDS011;4037;47.980;10.172;2023-06-14T07:20:24;4.30;;;3.40;;
7983;SDS011;4037;47.980;10.172;2023-06-14T07:22:50;4.00;;;3.23;;
7983;SDS011;4037;47.980;10.172;2023-06-14T07:25:16;4.40;;;3.00;;
7983;SDS011;4037;47.980;10.172;2023-06-14T07:27:47;5.30;;;3.60;;
7983;SDS011;4037;47.980;10.172;2023-06-14T07:30:13;6.37;;;3.37;;
7983;SDS011;4037;47.980;10.172;2023-06-14T07:32:39;5.53;;;2.83;;
7983;SDS011;4037;47.980;10.172;2023-06-14T07:35:05;3.13;;;2.73;;
7983;SDS011;4037;47.980;10.172;2023-06-14T07:37:31;4.17;;;3.03;;
7983;SDS011;4037;47.980;10.172;2023-06-14T07:39:57;5.27;;;2.93;;
7983;SDS011;4037;47.980;10.172;2023-06-14T07:42:23;3.03;;;2.67;;
7983;SDS011;4037;47.980;10.172;2023-06-14T07:44:50;4.03;;;3.40;;
7983;SDS011;4037;47.980;10.172;2023-06-14T07:47:17;3.73;;;2.90;;
7983;SDS011;4037;47.980;10.172;2023-06-14T07:49:43;3.90;;;2.80;;
7983;SDS011;4037;47.980;10.172;2023-06-14T07:52:09;5.30;;;3.30;;
7983;SDS011;4037;47.980;10.172;2023-06-14T07:54:36;3.33;;;2.80;;
7983;SDS011;4037;47.980;10.172;2023-06-14T07:57:02;4.87;;;2.90;;
7983;SDS011;4037;47.980;10.172;2023-06-14T07:59:28;3.13;;;2.60;;
7983;SDS011;4037;47.980;10.172;2023-06-14T08:01:54;3.77;;;2.33;;
7983;SDS011;4037;47.980;10.172;2023-06-14T08:04:20;3.50;;;2.40;;
7983;SDS011;4037;47.980;10.172;2023-06-14T08:06:46;3.80;;;2.83;;
7983;SDS011;4037;47.980;10.172;2023-06-14T08:09:13;3.13;;;2.50;;
7983;SDS011;4037;47.980;10.172;2023-06-14T08:11:39;3.00;;;2.60;;
7983;SDS011;4037;47.980;10.172;2023-06-14T08:14:05;3.13;;;2.50;;
7983;SDS011;4037;47.980;10.172;2023-06-14T08:16:31;7.10;;;2.70;;
7983;SDS011;4037;47.980;10.172;2023-06-14T08:18:57;3.03;;;2.43;;
7983;SDS011;4037;47.980;10.172;2023-06-14T08:21:23;2.47;;;2.10;;
7983;SDS011;4037;47.980;10.172;2023-06-14T08:23:53;3.33;;;2.30;;
7983;SDS011;4037;47.980;10.172;2023-06-14T08:26:19;3.70;;;2.97;;
7983;SDS011;4037;47.980;10.172;2023-06-14T08:28:46;3.03;;;2.50;;
7983;SDS011;4037;47.980;10.172;2023-06-14T08:31:12;4.47;;;2.23;;
7983;SDS011;4037;47.980;10.172;2023-06-14T08:33:38;4.33;;;2.50;;
7983;SDS011;4037;47.980;10.172;2023-06-14T08:36:07;6.00;;;2.33;;
7983;SDS011;4037;47.980;10.172;2023-06-14T08:38:35;3.97;;;2.20;;
7983;SDS011;4037;47.980;10.172;2023-06-14T08:41:02;3.67;;;2.30;;
7983;SDS011;4037;47.980;10.172;2023-06-14T08:43:31;2.78;;;2.13;;
7983;SDS011;4037;47.980;10.172;2023-06-14T08:46:03;3.05;;;2.03;;
7983;SDS011;4037;47.980;10.172;2023-06-14T08:48:30;4.47;;;2.40;;
7983;SDS011;4037;47.980;10.172;2023-06-14T08:50:59;4.45;;;2.72;;
7983;SDS011;4037;47.980;10.172;2023-06-14T08:53:32;9.75;;;2.63;;
7983;SDS011;4037;47.980;10.172;2023-06-14T08:56:02;3.55;;;2.60;;
7983;SDS011;4037;47.980;10.172;2023-06-14T08:58:29;5.40;;;2.37;;
7983;SDS011;4037;47.980;10.172;2023-06-14T09:00:56;4.43;;;2.58;;
7983;SDS011;4037;47.980;10.172;2023-06-14T09:03:23;2.67;;;2.20;;
7983;SDS011;4037;47.980;10.172;2023-06-14T09:05:54;3.13;;;2.50;;
7983;SDS011;4037;47.980;10.172;2023-06-14T09:08:20;2.85;;;2.28;;
7983;SDS011;4037;47.980;10.172;2023-06-14T09:10:48;6.00;;;2.70;;
7983;SDS011;4037;47.980;10.172;2023-06-14T09:13:14;4.90;;;2.55;;
7983;SDS011;4037;47.980;10.172;2023-06-14T09:15:40;4.72;;;2.28;;
7983;SDS011;4037;47.980;10.172;2023-06-14T09:18:07;4.07;;;2.50;;
7983;SDS011;4037;47.980;10.172;2023-06-14T09:20:33;2.75;;;2.20;;
7983;SDS011;4037;47.980;10.172;2023-06-14T09:23:00;3.67;;;2.53;;
7983;SDS011;4037;47.980;10.172;2023-06-14T09:25:26;5.13;;;2.17;;
7983;SDS011;4037;47.980;10.172;2023-06-14T09:27:52;3.10;;;1.98;;
7983;SDS011;4037;47.980;10.172;2023-06-14T09:30:19;4.60;;;2.67;;
7983;SDS011;4037;47.980;10.172;2023-06-14T09:32:46;6.05;;;2.35;;
7983;SDS011;4037;47.980;10.172;2023-06-14T09:35:12;3.57;;;2.60;;
7983;SDS011;4037;47.980;10.172;2023-06-14T09:37:43;3.10;;;2.28;;
7983;SDS011;4037;47.980;10.172;2023-06-14T09:40:09;2.03;;;1.90;;
7983;SDS011;4037;47.980;10.172;2023-06-14T09:42:36;3.10;;;2.42;;
7983;SDS011;4037;47.980;10.172;2023-06-14T09:45:05;5.65;;;2.38;;
7983;SDS011;4037;47.980;10.172;2023-06-14T09:47:32;3.95;;;2.50;;
7983;SDS011;4037;47.980;10.172;2023-06-14T09:49:58;5.55;;;2.80;;
7983;SDS011;4037;47.980;10.172;2023-06-14T09:52:25;4.60;;;2.40;;
7983;SDS011;4037;47.980;10.172;2023-06-14T09:54:52;4.95;;;2.47;;
7983;SDS011;4037;47.980;10.172;2023-06-14T09:57:22;2.95;;;2.50;;
7983;SDS011;4037;47.980;10.172;2023-06-14T09:59:48;4.20;;;2.70;;
7983;SDS011;4037;47.980;10.172;2023-06-14T10:02:27;3.55;;;2.78;;
7983;SDS011;4037;47.980;10.172;2023-06-14T10:05:06;4.88;;;2.75;;
7983;SDS011;4037;47.980;10.172;2023-06-14T10:08:07;5.25;;;2.80;;
7983;SDS011;4037;47.980;10.172;2023-06-14T10:10:26;4.70;;;2.55;;
7983;SDS011;4037;47.980;10.172;2023-06-14T10:12:52;5.32;;;2.40;;
7983;SDS011;4037;47.980;10.172;2023-06-14T10:18:19;4.57;;;2.42;;
7983;SDS011;4037;47.980;10.172;2023-06-14T10:23:40;11.02;;;3.17;;
7983;SDS011;4037;47.980;10.172;2023-06-14T10:26:07;8.43;;;2.67;;
7983;SDS011;4037;47.980;10.172;2023-06-14T10:28:34;4.57;;;2.53;;
7983;SDS011;4037;47.980;10.172;2023-06-14T10:33:32;2.90;;;2.30;;
7983;SDS011;4037;47.980;10.172;2023-06-14T10:38:43;4.72;;;2.42;;
7983;SDS011;4037;47.980;10.172;2023-06-14T10:41:09;2.90;;;2.38;;
7983;SDS011;4037;47.980;10.172;2023-06-14T10:43:35;2.58;;;2.38;;
7983;SDS011;4037;47.980;10.172;2023-06-14T10:48:40;3.50;;;2.33;;
7983;SDS011;4037;47.980;10.172;2023-06-14T10:51:14;4.32;;;2.55;;
7983;SDS011;4037;47.980;10.172;2023-06-14T10:53:45;2.67;;;2.22;;
7983;SDS011;4037;47.980;10.172;2023-06-14T10:56:22;3.03;;;2.65;;
7983;SDS011;4037;47.980;10.172;2023-06-14T10:58:49;3.65;;;2.47;;
7983;SDS011;4037;47.980;10.172;2023-06-14T11:01:16;3.13;;;2.80;;
7983;SDS011;4037;47.980;10.172;2023-06-14T11:03:49;3.47;;;2.90;;
7983;SDS011;4037;47.980;10.172;2023-06-14T11:06:17;3.33;;;2.85;;
7983;SDS011;4037;47.980;10.172;2023-06-14T11:11:47;4.28;;;2.50;;
7983;SDS011;4037;47.980;10.172;2023-06-14T11:14:13;3.67;;;2.75;;
7983;SDS011;4037;47.980;10.172;2023-06-14T11:16:39;3.08;;;2.63;;
7983;SDS011;4037;47.980;10.172;2023-06-14T11:19:05;3.20;;;2.47;;
7983;SDS011;4037;47.980;10.172;2023-06-14T11:21:32;4.75;;;2.25;;
7983;SDS011;4037;47.980;10.172;2023-06-14T11:23:58;3.03;;;2.53;;
7983;SDS011;4037;47.980;10.172;2023-06-14T11:26:28;5.07;;;2.53;;
7983;SDS011;4037;47.980;10.172;2023-06-14T11:28:55;3.13;;;2.72;;
7983;SDS011;4037;47.980;10.172;2023-06-14T11:31:22;5.28;;;2.75;;
7983;SDS011;4037;47.980;10.172;2023-06-14T11:33:51;4.03;;;2.20;;
7983;SDS011;4037;47.980;10.172;2023-06-14T11:36:19;2.45;;;2.20;;
7983;SDS011;4037;47.980;10.172;2023-06-14T11:38:45;3.72;;;2.88;;
7983;SDS011;4037;47.980;10.172;2023-06-14T11:41:11;4.43;;;2.70;;
7983;SDS011;4037;47.980;10.172;2023-06-14T11:43:37;3.10;;;2.30;;
7983;SDS011;4037;47.980;10.172;2023-06-14T11:46:03;2.58;;;2.35;;
7983;SDS011;4037;47.980;10.172;2023-06-14T11:48:36;4.15;;;2.50;;
7983;SDS011;4037;47.980;10.172;2023-06-14T11:51:02;2.40;;;2.05;;
7983;SDS011;4037;47.980;10.172;2023-06-14T11:53:28;2.58;;;2.25;;
7983;SDS011;4037;47.980;10.172;2023-06-14T11:55:54;3.40;;;2.45;;
7983;SDS011;4037;47.980;10.172;2023-06-14T11:58:20;4.20;;;2.20;;
7983;SDS011;4037;47.980;10.172;2023-06-14T12:00:48;3.13;;;2.28;;
7983;SDS011;4037;47.980;10.172;2023-06-14T12:03:15;3.05;;;2.20;;
7983;SDS011;4037;47.980;10.172;2023-06-14T12:05:41;3.08;;;2.25;;
7983;SDS011;4037;47.980;10.172;2023-06-14T12:08:07;3.17;;;2.58;;
7983;SDS011;4037;47.980;10.172;2023-06-14T12:10:40;4.28;;;2.40;;
7983;SDS011;4037;47.980;10.172;2023-06-14T12:13:09;3.03;;;2.72;;
7983;SDS011;4037;47.980;10.172;2023-06-14T12:15:36;3.10;;;2.22;;
7983;SDS011;4037;47.980;10.172;2023-06-14T12:18:05;3.80;;;2.30;;
7983;SDS011;4037;47.980;10.172;2023-06-14T12:20:33;4.28;;;2.65;;
7983;SDS011;4037;47.980;10.172;2023-06-14T12:23:00;2.88;;;2.38;;
7983;SDS011;4037;47.980;10.172;2023-06-14T12:25:32;3.15;;;2.45;;
7983;SDS011;4037;47.980;10.172;2023-06-14T12:27:58;2.38;;;2.10;;
7983;SDS011;4037;47.980;10.172;2023-06-14T12:30:25;3.55;;;2.15;;
7983;SDS011;4037;47.980;10.172;2023-06-14T12:32:50;3.03;;;2.42;;
7983;SDS011;4037;47.980;10.172;2023-06-14T12:35:17;3.38;;;2.35;;
7983;SDS011;4037;47.980;10.172;2023-06-14T12:37:46;3.97;;;2.55;;
7983;SDS011;4037;47.980;10.172;2023-06-14T12:40:13;3.55;;;2.53;;
7983;SDS011;4037;47.980;10.172;2023-06-14T12:42:40;3.08;;;2.67;;
7983;SDS011;4037;47.980;10.172;2023-06-14T12:45:06;3.22;;;2.70;;
7983;SDS011;4037;47.980;10.172;2023-06-14T12:47:32;3.50;;;2.65;;
7983;SDS011;4037;47.980;10.172;2023-06-14T12:49:58;3.05;;;2.38;;
7983;SDS011;4037;47.980;10.172;2023-06-14T12:52:24;2.58;;;2.38;;
7983;SDS011;4037;47.980;10.172;2023-06-14T12:54:50;3.08;;;2.20;;
7983;SDS011;4037;47.980;10.172;2023-06-14T12:57:16;2.78;;;1.90;;
7983;SDS011;4037;47.980;10.172;2023-06-14T12:59:42;5.13;;;2.10;;
7983;SDS011;4037;47.980;10.172;2023-06-14T13:02:12;5.75;;;2.67;;
7983;SDS011;4037;47.980;10.172;2023-06-14T13:04:38;3.63;;;2.55;;
7983;SDS011;4037;47.980;10.172;2023-06-14T13:07:04;2.97;;;2.67;;
7983;SDS011;4037;47.980;10.172;2023-06-14T13:09:30;2.83;;;2.13;;
7983;SDS011;4037;47.980;10.172;2023-06-14T13:11:56;2.70;;;2.15;;
7983;SDS011;4037;47.980;10.172;2023-06-14T13:14:22;2.75;;;2.28;;
7983;SDS011;4037;47.980;10.172;2023-06-14T13:16:48;2.58;;;2.30;;
7983;SDS011;4037;47.980;10.172;2023-06-14T13:19:14;2.70;;;2.50;;
7983;SDS011;4037;47.980;10.172;2023-06-14T13:21:40;2.85;;;2.40;;
7983;SDS011;4037;47.980;10.172;2023-06-14T13:24:06;2.78;;;2.47;;
7983;SDS011;4037;47.980;10.172;2023-06-14T13:26:33;3.03;;;2.25;;
7983;SDS011;4037;47.980;10.172;2023-06-14T13:28:59;3.13;;;2.45;;
7983;SDS011;4037;47.980;10.172;2023-06-14T13:31:25;4.45;;;2.55;;
7983;SDS011;4037;47.980;10.172;2023-06-14T13:33:51;2.58;;;2.35;;
7983;SDS011;4037;47.980;10.172;2023-06-14T13:36:17;2.50;;;2.17;;
7983;SDS011;4037;47.980;10.172;2023-06-14T13:38:43;2.25;;;1.70;;
7983;SDS011;4037;47.980;10.172;2023-06-14T13:41:09;2.90;;;2.20;;
7983;SDS011;4037;47.980;10.172;2023-06-14T13:43:35;2.72;;;2.42;;
7983;SDS011;4037;47.980;10.172;2023-06-14T13:46:01;3.10;;;2.03;;
7983;SDS011;4037;47.980;10.172;2023-06-14T13:48:27;5.55;;;2.38;;
7983;SDS011;4037;47.980;10.172;2023-06-14T13:50:53;3.70;;;2.28;;
7983;SDS011;4037;47.980;10.172;2023-06-14T13:53:19;2.80;;;2.10;;
7983;SDS011;4037;47.980;10.172;2023-06-14T13:55:45;3.53;;;2.70;;
7983;SDS011;4037;47.980;10.172;2023-06-14T13:58:11;2.92;;;2.45;;
7983;SDS011;4037;47.980;10.172;2023-06-14T14:00:39;2.47;;;2.28;;
7983;SDS011;4037;47.980;10.172;2023-06-14T14:03:05;4.13;;;2.53;;
7983;SDS011;4037;47.980;10.172;2023-06-14T14:05:32;2.38;;;1.92;;
7983;SDS011;4037;47.980;10.172;2023-06-14T14:07:58;3.22;;;2.33;;
7983;SDS011;4037;47.980;10.172;2023-06-14T14:10:24;3.40;;;2.55;;
7983;SDS011;4037;47.980;10.172;2023-06-14T14:12:51;3.33;;;2.72;;
7983;SDS011;4037;47.980;10.172;2023-06-14T14:15:18;3.20;;;2.13;;
7983;SDS011;4037;47.980;10.172;2023-06-14T14:17:44;2.70;;;2.40;;
7983;SDS011;4037;47.980;10.172;2023-06-14T14:20:10;3.35;;;2.45;;
7983;SDS011;4037;47.980;10.172;2023-06-14T14:22:43;2.47;;;2.28;;
7983;SDS011;4037;47.980;10.172;2023-06-14T14:25:10;4.75;;;3.25;;
7983;SDS011;4037;47.980;10.172;2023-06-14T14:27:36;2.92;;;2.45;;
7983;SDS011;4037;47.980;10.172;2023-06-14T14:30:03;4.80;;;2.72;;
7983;SDS011;4037;47.980;10.172;2023-06-14T14:32:29;3.22;;;2.53;;
7983;SDS011;4037;47.980;10.172;2023-06-14T14:34:55;5.30;;;2.50;;
7983;SDS011;4037;47.980;10.172;2023-06-14T14:37:21;2.47;;;2.25;;
7983;SDS011;4037;47.980;10.172;2023-06-14T14:39:47;3.28;;;2.25;;
7983;SDS011;4037;47.980;10.172;2023-06-14T14:42:13;2.22;;;2.03;;
7983;SDS011;4037;47.980;10.172;2023-06-14T14:44:39;2.88;;;2.55;;
7983;SDS011;4037;47.980;10.172;2023-06-14T14:47:05;2.38;;;2.10;;
7983;SDS011;4037;47.980;10.172;2023-06-14T14:49:32;4.78;;;2.50;;
7983;SDS011;4037;47.980;10.172;2023-06-14T14:51:58;2.28;;;2.08;;
7983;SDS011;4037;47.980;10.172;2023-06-14T14:54:24;3.25;;;2.45;;
7983;SDS011;4037;47.980;10.172;2023-06-14T14:56:50;2.60;;;2.17;;
7983;SDS011;4037;47.980;10.172;2023-06-14T14:59:16;4.28;;;2.67;;
7983;SDS011;4037;47.980;10.172;2023-06-14T15:01:43;3.28;;;2.75;;
7983;SDS011;4037;47.980;10.172;2023-06-14T15:04:10;2.85;;;2.50;;
7983;SDS011;4037;47.980;10.172;2023-06-14T15:06:37;3.78;;;2.75;;
7983;SDS011;4037;47.980;10.172;2023-06-14T15:09:04;6.82;;;2.40;;
7983;SDS011;4037;47.980;10.172;2023-06-14T15:11:30;2.72;;;2.47;;
7983;SDS011;4037;47.980;10.172;2023-06-14T15:13:56;2.85;;;2.42;;
7983;SDS011;4037;47.980;10.172;2023-06-14T15:16:23;2.90;;;2.60;;
7983;SDS011;4037;47.980;10.172;2023-06-14T15:18:49;2.78;;;2.30;;
7983;SDS011;4037;47.980;10.172;2023-06-14T15:21:15;3.70;;;2.25;;